Time;durP1;ratioP1;P1;durP2;ratioP2;P2;SDS_P1;SDS_P2;PMS_P1;PMS_P2;Temp;Humidity;BMP_temperature;BMP_pressure;BME280_temperature;BME280_humidity;BME280_pressure;Samples;Min_cycle;Max_cycle;Signal;HPM_P1;HPM_P2
2021/12/01 00:02:01;;;;;;;85.10;12.13;;;6.80;94.00;;;;;;5025692;28;20586;-61
2021/12/01 00:04:27;;;;;;;69.00;11.90;;;6.80;94.00;;;;;;5010059;28;20048;-60
2021/12/01 00:06:52;;;;;;;69.25;12.23;;;6.90;94.30;;;;;;5025524;28;20024;-59
2021/12/01 00:09:18;;;;;;;64.32;11.27;;;6.80;93.90;;;;;;5043907;28;20447;-61
2021/12/01 00:11:43;;;;;;;57.47;9.25;;;6.80;94.00;;;;;;5015214;28;20503;-60
2021/12/01 00:14:09;;;;;;;62.00;9.38;;;6.80;93.80;;;;;;5032501;28;20035;-60
2021/12/01 00:16:34;;;;;;;56.67;10.43;;;6.80;93.90;;;;;;5047397;28;20037;-60
2021/12/01 00:19:00;;;;;;;62.55;8.85;;;6.80;93.90;;;;;;5015526;28;20029;-60
2021/12/01 00:21:25;;;;;;;59.38;9.38;;;6.70;93.90;;;;;;5029908;28;20043;-60
2021/12/01 00:23:51;;;;;;;58.45;8.48;;;6.80;94.00;;;;;;5016741;28;20103;-60
2021/12/01 00:26:17;;;;;;;57.17;8.00;;;6.80;94.00;;;;;;5028987;28;20059;-60
2021/12/01 00:28:42;;;;;;;36.10;7.53;;;6.70;93.90;;;;;;5015545;28;20116;-61
2021/12/01 00:31:08;;;;;;;56.30;8.63;;;6.70;93.90;;;;;;5014487;28;20129;-60
2021/12/01 00:33:33;;;;;;;54.35;8.55;;;6.70;94.00;;;;;;5013582;28;20051;-60
2021/12/01 00:35:59;;;;;;;41.95;7.38;;;6.70;94.00;;;;;;5030903;28;20032;-59
2021/12/01 00:38:25;;;;;;;38.08;7.25;;;6.70;94.00;;;;;;5049273;28;20032;-61
2021/12/01 00:40:51;;;;;;;46.78;7.93;;;6.70;94.00;;;;;;5015817;28;20411;-61
2021/12/01 00:43:17;;;;;;;40.15;7.40;;;6.70;94.00;;;;;;5014595;28;20024;-60
2021/12/01 00:45:55;;;;;;;44.47;8.10;;;6.70;94.00;;;;;;5030220;28;20032;-61
2021/12/01 00:48:20;;;;;;;49.45;8.23;;;6.70;94.00;;;;;;5033346;28;20135;-60
2021/12/01 00:50:46;;;;;;;35.95;7.50;;;6.70;94.00;;;;;;5014268;28;20059;-62
2021/12/01 00:53:12;;;;;;;31.50;6.97;;;6.70;94.30;;;;;;5014967;28;20546;-61
2021/12/01 00:55:38;;;;;;;38.40;7.45;;;6.70;94.00;;;;;;5030111;28;20054;-60
2021/12/01 00:58:04;;;;;;;28.80;7.45;;;6.70;94.00;;;;;;5031281;28;20471;-60
2021/12/01 01:00:30;;;;;;;29.65;7.18;;;6.70;94.00;;;;;;5012947;28;20047;-61
2021/12/01 01:02:56;;;;;;;23.63;6.43;;;6.70;93.90;;;;;;5032842;28;20100;-61
2021/12/01 01:05:22;;;;;;;26.38;6.47;;;6.70;94.00;;;;;;5027446;28;20670;-60
2021/12/01 01:07:47;;;;;;;30.60;6.55;;;6.70;94.00;;;;;;5004965;28;20056;-61
2021/12/01 01:10:29;;;;;;;26.27;5.90;;;6.70;94.10;;;;;;5010769;28;20515;-61
2021/12/01 01:18:34;;;;;;;28.75;6.18;;;6.70;94.10;;;;;;5030692;28;20438;-60
2021/12/01 01:20:59;;;;;;;25.17;5.82;;;6.70;94.10;;;;;;5026502;28;20032;-60
2021/12/01 01:23:26;;;;;;;18.88;5.35;;;6.70;94.10;;;;;;5009680;28;20052;-61
2021/12/01 01:25:52;;;;;;;22.52;6.07;;;6.70;94.10;;;;;;5026400;28;20112;-62
2021/12/01 01:28:18;;;;;;;23.25;5.13;;;6.60;94.10;;;;;;5060269;28;20476;-60
2021/12/01 01:30:43;;;;;;;19.65;6.53;;;6.70;94.20;;;;;;5028298;28;20040;-60
2021/12/01 01:33:09;;;;;;;19.88;5.68;;;6.70;94.10;;;;;;5040809;28;20524;-61
2021/12/01 01:35:34;;;;;;;20.58;4.72;;;6.70;94.20;;;;;;5009229;28;20063;-61
2021/12/01 01:38:00;;;;;;;22.02;5.25;;;6.60;94.20;;;;;;5024663;28;20526;-61
2021/12/01 01:40:26;;;;;;;24.65;4.72;;;6.70;94.30;;;;;;5028507;28;20021;-61
2021/12/01 01:42:51;;;;;;;18.00;5.10;;;6.70;94.60;;;;;;5028614;28;20041;-60
2021/12/01 01:45:17;;;;;;;15.65;4.50;;;6.70;94.40;;;;;;5025649;28;20040;-60
2021/12/01 01:48:01;;;;;;;20.35;5.25;;;6.70;94.40;;;;;;5024396;28;20041;-61
2021/12/01 01:50:36;;;;;;;19.45;5.40;;;6.70;94.40;;;;;;5040878;28;20088;-61
2021/12/01 01:53:06;;;;;;;;;;;6.70;94.50;;;;;;5010588;28;20072;-61
2021/12/01 01:55:32;;;;;;;19.67;4.80;;;6.60;94.40;;;;;;5061315;28;20268;-60
2021/12/01 01:58:00;;;;;;;17.25;4.32;;;6.70;94.50;;;;;;5026422;28;20021;-61
2021/12/01 02:00:26;;;;;;;14.23;4.03;;;6.70;94.50;;;;;;5059244;28;20029;-60
2021/12/01 02:02:52;;;;;;;18.10;4.45;;;6.80;94.40;;;;;;5010201;28;20033;-60
2021/12/01 02:05:18;;;;;;;25.70;4.75;;;6.80;94.30;;;;;;5026745;28;20045;-60
2021/12/01 02:07:44;;;;;;;18.73;5.13;;;6.80;94.30;;;;;;5027132;28;20025;-61
2021/12/01 02:10:09;;;;;;;12.95;4.30;;;6.80;94.20;;;;;;5014593;28;20094;-61
2021/12/01 02:12:38;;;;;;;13.70;4.93;;;6.80;94.20;;;;;;5009167;28;20388;-61
2021/12/01 02:15:03;;;;;;;10.90;4.18;;;6.80;94.10;;;;;;5026471;28;20663;-61
2021/12/01 02:17:29;;;;;;;19.92;5.25;;;6.80;94.20;;;;;;5008803;28;20075;-60
2021/12/01 02:19:55;;;;;;;9.00;3.72;;;6.80;94.20;;;;;;5010425;28;20020;-60
2021/12/01 02:22:21;;;;;;;12.07;4.25;;;6.80;94.20;;;;;;5025751;28;20083;-60
2021/12/01 02:24:47;;;;;;;18.85;4.65;;;6.80;94.20;;;;;;5044273;28;20033;-61
2021/12/01 02:27:13;;;;;;;17.90;4.15;;;6.80;94.20;;;;;;5024684;28;20039;-62
2021/12/01 02:29:38;;;;;;;16.80;4.47;;;6.80;94.10;;;;;;5024934;28;20017;-61
2021/12/01 02:32:04;;;;;;;21.23;4.47;;;6.80;94.10;;;;;;5007555;28;20039;-60
2021/12/01 02:34:31;;;;;;;13.10;4.47;;;6.80;94.10;;;;;;5010157;28;20283;-60
2021/12/01 02:36:57;;;;;;;19.55;4.88;;;6.80;94.10;;;;;;5008309;28;20144;-61
2021/12/01 02:39:23;;;;;;;21.95;4.75;;;6.80;94.00;;;;;;5023184;28;20040;-61
2021/12/01 02:41:54;;;;;;;16.67;4.28;;;6.80;94.00;;;;;;5016131;28;20460;-61
2021/12/01 02:44:20;;;;;;;11.35;4.30;;;6.80;94.00;;;;;;5040935;28;20119;-61
2021/12/01 02:46:46;;;;;;;14.95;4.22;;;6.80;94.00;;;;;;5025513;28;20428;-62
2021/12/01 02:49:12;;;;;;;12.38;4.50;;;6.80;94.10;;;;;;5007866;28;20128;-61
2021/12/01 02:51:38;;;;;;;18.05;4.50;;;6.80;94.00;;;;;;5007792;28;20452;-61
2021/12/01 02:54:04;;;;;;;18.30;4.43;;;6.80;94.00;;;;;;5025339;28;20025;-61
2021/12/01 02:56:31;;;;;;;13.43;4.45;;;6.80;94.00;;;;;;5021646;28;20056;-61
2021/12/01 02:58:57;;;;;;;13.98;3.55;;;6.80;94.30;;;;;;5025417;28;20048;-62
2021/12/01 03:01:23;;;;;;;10.48;4.35;;;6.80;94.00;;;;;;5024100;28;20087;-61
2021/12/01 03:03:48;;;;;;;12.93;4.15;;;6.80;94.10;;;;;;5006265;28;20045;-61
2021/12/01 03:06:14;;;;;;;11.55;3.75;;;6.80;94.00;;;;;;4994950;28;20029;-61
2021/12/01 03:08:40;;;;;;;10.05;3.30;;;6.80;94.00;;;;;;5020031;28;20039;-61
2021/12/01 03:11:06;;;;;;;8.27;3.28;;;6.80;94.10;;;;;;5021657;28;20451;-61
2021/12/01 03:13:31;;;;;;;8.35;3.30;;;6.80;94.00;;;;;;5022977;28;20045;-62
2021/12/01 03:15:57;;;;;;;11.90;3.65;;;6.80;94.00;;;;;;5020583;28;20025;-61
2021/12/01 03:18:23;;;;;;;14.00;3.53;;;6.80;94.10;;;;;;5005043;28;20138;-61
2021/12/01 03:20:49;;;;;;;16.05;4.18;;;6.80;94.10;;;;;;5001979;28;20036;-62
2021/12/01 03:23:14;;;;;;;7.50;3.72;;;6.80;94.00;;;;;;5036044;28;20199;-61
2021/12/01 03:25:40;;;;;;;7.60;3.25;;;6.90;94.00;;;;;;5014532;28;20152;-62
2021/12/01 03:28:09;;;;;;;10.20;3.75;;;6.80;94.00;;;;;;5021285;28;20525;-61
2021/12/01 03:30:37;;;;;;;8.80;3.58;;;6.90;94.00;;;;;;5039691;28;20024;-61
2021/12/01 03:33:07;;;;;;;8.40;3.50;;;6.90;94.30;;;;;;5022685;28;20028;-61
2021/12/01 03:35:32;;;;;;;9.98;3.05;;;6.90;93.90;;;;;;5006928;28;20025;-61
2021/12/01 03:37:58;;;;;;;8.13;3.08;;;6.90;93.90;;;;;;5006940;28;20040;-61
2021/12/01 03:40:23;;;;;;;8.60;2.92;;;6.90;93.90;;;;;;5008884;28;20025;-61
2021/12/01 03:42:49;;;;;;;10.77;2.78;;;6.90;93.90;;;;;;5024483;28;20025;-61
2021/12/01 03:45:14;;;;;;;9.38;3.80;;;6.80;93.90;;;;;;5022356;28;20033;-61
2021/12/01 03:47:40;;;;;;;4.65;2.88;;;6.80;94.00;;;;;;5038711;28;20029;-61
2021/12/01 03:50:06;;;;;;;7.20;2.33;;;6.80;93.90;;;;;;5040689;28;20040;-62
2021/12/01 03:52:32;;;;;;;6.90;2.85;;;6.80;94.00;;;;;;5007870;28;20037;-61
2021/12/01 03:54:58;;;;;;;4.22;2.78;;;6.80;94.00;;;;;;5040584;28;20040;-61
2021/12/01 03:57:23;;;;;;;4.95;2.78;;;6.80;94.00;;;;;;5023124;28;20145;-62
2021/12/01 03:59:49;;;;;;;5.45;2.70;;;6.80;94.00;;;;;;5040657;28;20037;-61
2021/12/01 04:02:14;;;;;;;4.47;2.80;;;6.80;94.00;;;;;;5022335;28;20063;-61
2021/12/01 04:04:40;;;;;;;8.93;3.03;;;6.80;94.00;;;;;;5040050;28;20132;-61
2021/12/01 04:07:06;;;;;;;6.07;2.80;;;6.80;94.00;;;;;;5023267;28;20056;-61
2021/12/01 04:09:31;;;;;;;5.10;2.88;;;6.80;94.10;;;;;;5007413;28;20539;-61
2021/12/01 04:11:57;;;;;;;8.43;2.95;;;6.80;94.00;;;;;;5040386;28;20040;-62
2021/12/01 04:14:22;;;;;;;6.18;2.88;;;6.80;94.00;;;;;;5008540;28;20377;-61
2021/12/01 04:16:48;;;;;;;5.32;2.83;;;6.80;94.00;;;;;;5021769;28;20037;-61
2021/12/01 04:19:13;;;;;;;7.03;3.00;;;6.80;94.10;;;;;;5025274;28;20087;-61
2021/12/01 04:21:39;;;;;;;5.82;3.00;;;6.80;94.00;;;;;;5024259;28;20029;-61
2021/12/01 04:24:05;;;;;;;7.85;2.65;;;6.80;94.00;;;;;;5007905;28;20040;-60
2021/12/01 04:26:33;;;;;;;5.18;2.60;;;6.80;94.00;;;;;;5007362;28;20087;-60
2021/12/01 04:28:59;;;;;;;9.38;2.65;;;6.80;94.00;;;;;;5008415;28;20144;-60
2021/12/01 04:31:25;;;;;;;6.47;2.80;;;6.80;94.00;;;;;;5008918;28;20025;-60
2021/12/01 04:33:51;;;;;;;6.32;2.60;;;6.80;94.00;;;;;;5024249;28;20061;-61
2021/12/01 04:36:17;;;;;;;4.03;2.80;;;6.80;94.00;;;;;;5006622;28;20084;-61
2021/12/01 04:38:43;;;;;;;4.13;2.85;;;6.80;93.90;;;;;;5007456;28;20044;-61
2021/12/01 04:41:12;;;;;;;5.65;2.60;;;6.80;94.00;;;;;;5041261;28;20480;-60
2021/12/01 04:43:38;;;;;;;3.88;2.90;;;6.80;93.90;;;;;;5008793;28;20052;-61
2021/12/01 04:46:04;;;;;;;5.60;2.95;;;6.80;93.90;;;;;;5007298;28;20502;-61
2021/12/01 04:48:30;;;;;;;6.15;2.97;;;6.80;93.80;;;;;;5024772;28;20454;-61
2021/12/01 04:50:55;;;;;;;5.95;2.63;;;6.80;93.90;;;;;;5019204;28;20040;-61
2021/12/01 04:53:21;;;;;;;7.50;2.80;;;6.80;93.80;;;;;;5007699;28;20138;-60
2021/12/01 04:55:46;;;;;;;3.33;1.98;;;6.80;93.80;;;;;;5007225;28;20156;-61
2021/12/01 04:58:12;;;;;;;5.82;2.47;;;6.80;93.80;;;;;;5026855;28;20071;-60
2021/12/01 05:00:37;;;;;;;3.53;2.50;;;6.80;93.80;;;;;;5011056;28;20026;-61
2021/12/01 05:03:04;;;;;;;7.60;2.35;;;6.80;93.80;;;;;;5011490;28;20381;-60
2021/12/01 05:05:30;;;;;;;3.53;2.15;;;6.80;93.80;;;;;;5026684;28;20128;-61
2021/12/01 05:07:55;;;;;;;5.30;2.83;;;6.80;93.90;;;;;;5042857;28;20037;-61
2021/12/01 05:10:21;;;;;;;10.07;2.63;;;6.80;93.80;;;;;;5029774;28;20033;-61
2021/12/01 05:12:47;;;;;;;5.60;2.70;;;6.80;93.80;;;;;;5043921;28;20025;-61
2021/12/01 05:15:12;;;;;;;10.68;3.00;;;6.80;93.80;;;;;;5010246;28;20122;-61
2021/12/01 05:17:38;;;;;;;10.88;3.05;;;6.80;93.80;;;;;;5010516;28;20550;-61
2021/12/01 05:20:04;;;;;;;61.47;8.60;;;6.80;93.80;;;;;;5061453;28;20043;-61
2021/12/01 05:22:30;;;;;;;78.78;9.55;;;6.80;93.80;;;;;;5029283;28;20075;-60
2021/12/01 05:24:56;;;;;;;35.83;5.15;;;6.80;93.80;;;;;;5029250;28;20477;-60
2021/12/01 05:27:21;;;;;;;24.13;4.65;;;6.80;93.80;;;;;;5010534;28;20024;-61
2021/12/01 05:29:48;;;;;;;32.03;4.60;;;6.80;93.90;;;;;;5025917;28;20021;-61
2021/12/01 05:32:13;;;;;;;22.17;3.60;;;6.80;93.90;;;;;;5041410;28;20031;-61
2021/12/01 05:34:39;;;;;;;17.10;3.42;;;6.80;93.90;;;;;;5009406;28;20493;-61
2021/12/01 05:37:04;;;;;;;25.63;4.63;;;6.80;93.90;;;;;;5009992;28;20131;-59
2021/12/01 05:39:32;;;;;;;17.05;3.92;;;6.80;93.90;;;;;;5026641;28;20025;-61
2021/12/01 05:41:58;;;;;;;19.45;3.78;;;6.80;93.90;;;;;;5027008;28;20039;-60
2021/12/01 05:44:23;;;;;;;22.40;3.97;;;6.80;93.90;;;;;;5010529;28;20033;-60
2021/12/01 05:46:49;;;;;;;29.30;4.20;;;6.80;94.00;;;;;;5026020;28;20048;-61
2021/12/01 05:49:15;;;;;;;24.98;4.80;;;6.80;93.90;;;;;;5012419;28;20044;-61
2021/12/01 05:51:40;;;;;;;24.13;4.68;;;6.80;93.90;;;;;;5011788;28;20107;-60
2021/12/01 05:54:07;;;;;;;17.65;4.03;;;6.80;94.20;;;;;;5044000;28;20333;-61
2021/12/01 05:56:32;;;;;;;18.60;3.25;;;6.80;93.90;;;;;;5009914;28;20025;-60
2021/12/01 05:58:58;;;;;;;22.73;4.03;;;6.80;93.80;;;;;;5009887;28;20376;-61
2021/12/01 06:01:23;;;;;;;14.23;4.13;;;6.90;93.90;;;;;;5010188;28;20171;-61
2021/12/01 06:03:49;;;;;;;23.35;3.75;;;6.90;93.90;;;;;;5026562;28;20122;-61
2021/12/01 06:06:14;;;;;;;18.52;3.65;;;6.90;93.80;;;;;;5009681;28;20549;-62
2021/12/01 06:08:42;;;;;;;19.30;3.70;;;6.80;93.80;;;;;;5041654;28;20082;-61
2021/12/01 06:11:08;;;;;;;12.68;3.50;;;6.90;93.80;;;;;;5026126;28;20017;-61
2021/12/01 06:13:33;;;;;;;22.50;3.55;;;6.90;93.80;;;;;;5025455;28;20051;-60
2021/12/01 06:15:59;;;;;;;24.67;4.45;;;6.80;93.70;;;;;;5026827;28;20026;-61
2021/12/01 06:18:25;;;;;;;26.42;3.95;;;6.90;93.80;;;;;;5027672;28;20029;-61
2021/12/01 06:20:50;;;;;;;14.63;3.50;;;6.90;93.80;;;;;;5010815;28;20056;-61
2021/12/01 06:23:16;;;;;;;17.05;3.58;;;6.90;93.90;;;;;;5026185;28;20040;-61
2021/12/01 06:25:42;;;;;;;20.50;4.45;;;6.90;93.90;;;;;;5020793;28;20029;-61
2021/12/01 06:28:07;;;;;;;18.05;3.90;;;6.90;93.90;;;;;;5039029;28;20300;-61
2021/12/01 06:30:35;;;;;;;19.85;3.53;;;6.90;93.90;;;;;;5026908;28;20033;-60
2021/12/01 06:33:01;;;;;;;15.40;3.15;;;6.90;93.80;;;;;;5022416;28;20022;-61
2021/12/01 06:35:26;;;;;;;24.67;3.72;;;6.90;93.80;;;;;;5040615;28;20475;-61
2021/12/01 06:37:54;;;;;;;12.75;3.40;;;6.90;93.90;;;;;;5007051;28;20032;-61
2021/12/01 06:40:20;;;;;;;13.15;3.40;;;6.90;93.90;;;;;;5026740;28;20473;-61
2021/12/01 06:42:46;;;;;;;10.40;3.17;;;6.90;93.90;;;;;;5027530;28;20047;-60
2021/12/01 06:45:11;;;;;;;18.20;3.60;;;6.90;93.90;;;;;;5010470;28;20255;-62
2021/12/01 06:47:38;;;;;;;19.20;3.75;;;6.90;93.90;;;;;;5025306;28;20029;-61
2021/12/01 06:50:04;;;;;;;8.63;3.78;;;6.90;93.90;;;;;;5025891;28;20053;-61
2021/12/01 06:52:30;;;;;;;20.35;3.78;;;6.90;93.90;;;;;;5026122;28;20045;-61
2021/12/01 06:54:59;;;;;;;12.45;3.40;;;6.90;94.00;;;;;;5009228;28;20041;-61
2021/12/01 06:57:24;;;;;;;19.95;3.72;;;6.80;93.90;;;;;;5023881;28;20229;-60
2021/12/01 06:59:50;;;;;;;13.73;3.17;;;6.80;93.90;;;;;;5014706;28;20384;-61
2021/12/01 07:02:17;;;;;;;9.80;3.15;;;6.90;93.90;;;;;;5025117;28;20580;-61
2021/12/01 07:04:43;;;;;;;8.18;3.20;;;6.80;93.90;;;;;;5008496;28;20072;-61
2021/12/01 07:07:08;;;;;;;12.32;2.83;;;6.80;93.90;;;;;;5010563;28;20055;-61
2021/12/01 07:09:34;;;;;;;16.13;2.95;;;6.80;93.90;;;;;;5011363;28;20025;-61
2021/12/01 07:11:59;;;;;;;10.75;2.92;;;6.80;93.90;;;;;;5009395;28;20037;-60
2021/12/01 07:14:27;;;;;;;10.20;2.83;;;6.80;93.90;;;;;;5024185;28;20059;-61
2021/12/01 07:16:53;;;;;;;9.32;3.10;;;6.80;93.90;;;;;;5023856;28;20158;-61
2021/12/01 07:19:18;;;;;;;10.48;3.10;;;6.80;93.90;;;;;;5041025;28;20045;-61
2021/12/01 07:21:44;;;;;;;12.05;2.50;;;6.80;93.90;;;;;;5004755;28;20543;-60
2021/12/01 07:24:10;;;;;;;14.38;3.38;;;6.80;93.90;;;;;;5006693;28;20025;-60
2021/12/01 07:26:35;;;;;;;6.30;2.78;;;7.00;94.00;;;;;;5022934;28;20364;-60
2021/12/01 07:29:01;;;;;;;11.18;2.90;;;6.80;93.90;;;;;;5007426;28;20041;-60
2021/12/01 07:31:26;;;;;;;9.43;2.50;;;6.80;93.90;;;;;;5024036;28;20355;-61
2021/12/01 07:33:52;;;;;;;9.65;3.22;;;6.80;93.90;;;;;;5016744;28;20063;-62
2021/12/01 07:36:17;;;;;;;8.50;2.78;;;6.80;93.80;;;;;;5035831;28;20376;-61
2021/12/01 07:38:43;;;;;;;7.18;3.13;;;6.80;93.80;;;;;;5037158;28;20112;-61
2021/12/01 07:41:08;;;;;;;7.55;2.72;;;6.80;93.80;;;;;;5005296;28;20043;-61
2021/12/01 07:43:34;;;;;;;11.43;2.80;;;6.90;93.80;;;;;;5007287;28;20242;-61
2021/12/01 07:46:02;;;;;;;7.93;2.92;;;6.80;93.80;;;;;;5015035;28;20051;-61
2021/12/01 07:48:28;;;;;;;7.85;3.05;;;6.90;93.80;;;;;;5025784;28;20435;-61
2021/12/01 07:50:55;;;;;;;12.23;3.45;;;6.80;93.80;;;;;;5012884;28;20032;-62
2021/12/01 07:53:21;;;;;;;19.40;3.00;;;6.90;93.80;;;;;;5024566;28;20119;-61
2021/12/01 07:55:47;;;;;;;7.85;2.72;;;6.90;93.90;;;;;;5016005;28;20048;-61
2021/12/01 07:58:12;;;;;;;12.63;3.53;;;6.90;93.90;;;;;;5006306;28;20041;-61
2021/12/01 08:00:38;;;;;;;12.32;2.95;;;6.90;93.80;;;;;;5036360;28;20080;-61
2021/12/01 08:03:03;;;;;;;9.15;3.22;;;6.90;93.70;;;;;;5003328;28;20200;-61
2021/12/01 08:05:29;;;;;;;8.90;2.78;;;6.90;93.70;;;;;;5002686;28;20044;-61
2021/12/01 08:07:56;;;;;;;10.32;2.97;;;7.00;93.70;;;;;;5004939;28;20052;-61
2021/12/01 08:10:21;;;;;;;14.18;3.53;;;6.90;93.70;;;;;;5010135;28;20469;-61
2021/12/01 08:12:47;;;;;;;8.40;3.05;;;7.00;93.70;;;;;;5030991;28;20155;-61
2021/12/01 08:15:12;;;;;;;14.55;3.03;;;6.90;93.70;;;;;;5032524;28;20466;-61
2021/12/01 08:17:38;;;;;;;53.03;8.23;;;6.90;93.80;;;;;;5015421;28;20069;-61
2021/12/01 08:20:04;;;;;;;13.30;3.70;;;7.00;93.90;;;;;;5004580;28;20028;-61
2021/12/01 08:22:29;;;;;;;22.15;4.18;;;7.00;93.90;;;;;;5019413;28;20439;-61
2021/12/01 08:24:57;;;;;;;35.45;5.72;;;7.00;93.90;;;;;;5021420;28;20385;-61
2021/12/01 08:27:23;;;;;;;36.67;5.95;;;7.00;93.90;;;;;;5006318;28;20120;-62
2021/12/01 08:29:48;;;;;;;52.15;5.68;;;7.10;93.80;;;;;;4999175;28;20116;-61
2021/12/01 08:32:14;;;;;;;41.95;6.00;;;7.00;93.80;;;;;;5006312;28;20448;-61
2021/12/01 08:34:39;;;;;;;36.42;5.22;;;7.10;93.90;;;;;;5020122;28;20475;-61
2021/12/01 08:37:10;;;;;;;26.30;5.22;;;7.10;93.90;;;;;;5027795;28;21597;-61
2021/12/01 08:39:35;;;;;;;31.55;5.15;;;7.10;93.90;;;;;;5024975;28;20025;-61
2021/12/01 08:42:01;;;;;;;17.60;3.92;;;7.10;93.90;;;;;;5006522;28;20056;-61
2021/12/01 08:44:26;;;;;;;24.05;3.78;;;7.10;93.90;;;;;;5030464;28;20036;-61
2021/12/01 08:46:52;;;;;;;17.35;3.60;;;7.10;93.80;;;;;;5041462;28;20020;-62
2021/12/01 08:49:17;;;;;;;25.50;4.22;;;7.20;93.80;;;;;;5004502;28;20028;-61
2021/12/01 08:51:43;;;;;;;25.98;4.32;;;7.10;93.80;;;;;;5053384;28;20059;-61
2021/12/01 08:54:13;;;;;;;21.80;3.65;;;7.20;93.70;;;;;;5024973;28;20379;-61
2021/12/01 08:56:40;;;;;;;23.88;4.25;;;7.20;93.70;;;;;;5040355;28;20713;-62
2021/12/01 08:59:05;;;;;;;27.15;5.20;;;7.20;93.70;;;;;;5010162;28;20033;-61
2021/12/01 09:01:31;;;;;;;45.83;5.40;;;7.20;93.70;;;;;;5009381;28;20037;-61
2021/12/01 09:03:56;;;;;;;32.63;6.18;;;7.20;93.70;;;;;;5034457;28;20041;-61
2021/12/01 09:06:22;;;;;;;46.80;5.82;;;7.20;93.70;;;;;;5009911;28;20043;-61
2021/12/01 09:08:47;;;;;;;43.67;6.32;;;7.20;93.70;;;;;;5021888;28;20033;-61
2021/12/01 09:11:13;;;;;;;58.50;6.78;;;7.20;93.70;;;;;;5020429;28;20245;-62
2021/12/01 09:13:38;;;;;;;45.20;6.07;;;7.30;93.70;;;;;;5023879;28;20029;-61
2021/12/01 09:16:04;;;;;;;25.63;5.00;;;7.30;93.70;;;;;;5008471;28;20029;-61
2021/12/01 09:18:30;;;;;;;40.35;5.75;;;7.30;93.60;;;;;;5016125;28;20030;-61
2021/12/01 09:20:56;;;;;;;49.15;5.93;;;7.40;93.60;;;;;;5011119;28;20033;-61
2021/12/01 09:23:22;;;;;;;49.67;6.68;;;7.40;93.50;;;;;;5019104;28;20116;-61
2021/12/01 09:25:48;;;;;;;32.85;5.65;;;7.40;93.70;;;;;;5005705;28;20139;-61
2021/12/01 09:28:14;;;;;;;37.65;6.78;;;7.40;93.60;;;;;;5004863;28;20075;-61
2021/12/01 09:30:40;;;;;;;50.25;7.20;;;7.50;93.60;;;;;;5019879;28;20033;-61
2021/12/01 09:33:05;;;;;;;32.53;5.30;;;7.50;93.60;;;;;;5017458;28;20295;-61
2021/12/01 09:35:31;;;;;;;36.88;5.57;;;7.50;93.70;;;;;;5001885;28;20024;-61
2021/12/01 09:37:56;;;;;;;52.00;5.38;;;7.60;93.70;;;;;;5016736;28;20049;-61
2021/12/01 09:40:23;;;;;;;45.33;6.55;;;7.60;93.70;;;;;;5028058;28;20032;-61
2021/12/01 09:42:51;;;;;;;60.20;6.20;;;7.60;93.70;;;;;;5020632;28;20641;-62
2021/12/01 09:45:18;;;;;;;59.58;7.80;;;7.70;93.70;;;;;;5024492;28;20081;-61
2021/12/01 09:47:44;;;;;;;59.47;7.22;;;7.60;93.60;;;;;;5023768;28;20127;-61
2021/12/01 09:50:12;;;;;;;50.35;7.00;;;7.70;93.80;;;;;;5019278;28;20108;-61
2021/12/01 09:52:37;;;;;;;49.47;7.80;;;7.70;93.80;;;;;;5005683;28;20140;-61
2021/12/01 09:55:04;;;;;;;51.67;6.93;;;7.80;93.70;;;;;;5000021;28;20571;-62
2021/12/01 09:57:29;;;;;;;57.83;7.15;;;7.80;93.70;;;;;;5018801;28;20135;-61
2021/12/01 09:59:55;;;;;;;47.65;6.60;;;7.80;93.80;;;;;;5004350;28;20148;-62
2021/12/01 10:02:24;;;;;;;49.10;7.38;;;7.80;93.70;;;;;;5002422;28;20151;-62
2021/12/01 10:04:50;;;;;;;54.55;7.10;;;7.90;93.70;;;;;;5024127;28;20069;-61
2021/12/01 10:07:17;;;;;;;59.60;7.35;;;7.90;93.70;;;;;;5007097;28;20117;-61
2021/12/01 10:09:44;;;;;;;43.97;6.78;;;7.80;93.70;;;;;;5019989;28;20690;-61
2021/12/01 10:12:10;;;;;;;36.53;5.97;;;7.90;93.60;;;;;;5017435;28;20629;-62
2021/12/01 10:14:36;;;;;;;52.63;8.63;;;7.90;93.50;;;;;;5025549;28;20057;-62
2021/12/01 10:17:02;;;;;;;58.40;7.28;;;7.90;93.70;;;;;;5020385;28;20063;-62
2021/12/01 10:19:28;;;;;;;44.72;7.03;;;8.00;93.70;;;;;;5021050;28;20157;-61
2021/12/01 10:21:53;;;;;;;63.13;8.35;;;8.00;93.70;;;;;;5029468;28;20116;-61
2021/12/01 10:24:21;;;;;;;60.88;6.93;;;8.00;93.70;;;;;;5004465;28;20067;-61
2021/12/01 10:26:58;;;;;;;63.83;8.70;;;8.10;93.60;;;;;;5003998;28;20102;-61
2021/12/01 10:29:31;;;;;;;68.40;8.02;;;8.10;93.50;;;;;;5039488;28;20480;-62
2021/12/01 10:32:07;;;;;;;70.05;8.57;;;8.10;93.40;;;;;;5020656;28;20493;-64
2021/12/01 10:34:33;;;;;;;44.58;5.75;;;8.10;93.50;;;;;;5057604;28;20029;-61
2021/12/01 10:37:09;;;;;;;63.25;7.03;;;8.10;93.50;;;;;;5039119;28;20467;-61
2021/12/01 10:39:39;;;;;;;59.83;7.47;;;8.10;93.50;;;;;;5020281;28;20040;-61
2021/12/01 10:42:10;;;;;;;62.67;8.25;;;8.20;93.50;;;;;;5003658;28;20044;-61
2021/12/01 10:44:36;;;;;;;64.47;8.90;;;8.20;93.50;;;;;;5023087;28;20055;-61
2021/12/01 10:47:11;;;;;;;70.88;8.63;;;8.20;93.50;;;;;;5001705;28;20029;-61
2021/12/01 10:49:42;;;;;;;72.57;8.23;;;8.20;93.50;;;;;;5022258;28;20627;-61
2021/12/01 10:52:28;;;;;;;74.70;8.07;;;8.20;93.40;;;;;;5010641;28;20037;-61
2021/12/01 10:55:04;;;;;;;50.28;7.32;;;8.30;93.40;;;;;;5018357;28;20036;-61
2021/12/01 10:57:29;;;;;;;88.97;10.32;;;8.40;93.50;;;;;;5038814;28;20047;-61
2021/12/01 10:59:55;;;;;;;70.38;8.68;;;8.30;93.50;;;;;;5021955;28;20104;-62
2021/12/01 11:02:22;;;;;;;79.75;8.88;;;8.30;93.50;;;;;;5017762;28;20475;-62
2021/12/01 11:04:48;;;;;;;60.72;8.07;;;8.30;93.50;;;;;;5003510;28;20336;-61
2021/12/01 11:07:28;;;;;;;73.85;8.77;;;8.40;93.50;;;;;;5016912;28;20079;-61
2021/12/01 11:10:18;;;;;;;62.22;6.65;;;8.40;93.40;;;;;;5019666;28;20131;-61
2021/12/01 11:12:55;;;;;;;60.50;8.35;;;8.50;93.30;;;;;;5053735;28;20163;-61
2021/12/01 11:15:29;;;;;;;60.38;7.60;;;8.40;93.30;;;;;;5032249;28;20024;-61
2021/12/01 11:17:54;;;;;;;73.82;8.48;;;8.50;93.50;;;;;;5018425;28;20037;-61
2021/12/01 11:20:43;;;;;;;56.95;7.75;;;8.60;93.50;;;;;;5017863;28;20070;-61
2021/12/01 11:23:26;;;;;;;96.75;11.15;;;8.50;93.50;;;;;;5018581;28;20119;-61
2021/12/01 11:25:54;;;;;;;66.93;8.75;;;8.60;93.60;;;;;;5004631;28;20033;-61
2021/12/01 11:28:20;;;;;;;55.30;6.97;;;8.60;93.40;;;;;;5020623;28;20223;-61
2021/12/01 11:30:48;;;;;;;76.95;8.90;;;8.60;93.20;;;;;;5015825;28;20159;-61
2021/12/01 11:33:18;;;;;;;80.68;9.30;;;8.70;93.30;;;;;;5017798;28;20252;-60
2021/12/01 11:35:49;;;;;;;50.67;8.73;;;8.80;93.20;;;;;;5007038;28;20017;-61
2021/12/01 11:38:15;;;;;;;52.33;8.77;;;8.80;93.20;;;;;;5021305;28;20048;-61
2021/12/01 11:40:41;;;;;;;61.20;8.30;;;8.80;93.10;;;;;;5018656;28;20021;-60
2021/12/01 11:43:08;;;;;;;61.65;9.05;;;9.00;93.20;;;;;;5018011;28;20025;-60
2021/12/01 11:45:41;;;;;;;59.30;8.15;;;8.80;93.30;;;;;;4997875;28;20051;-60
2021/12/01 11:48:15;;;;;;;90.05;10.15;;;8.80;93.20;;;;;;5016498;28;20483;-60
2021/12/01 11:51:10;;;;;;;81.35;8.93;;;8.80;93.20;;;;;;5019695;28;20225;-61
2021/12/01 11:53:37;;;;;;;58.83;8.23;;;8.90;93.40;;;;;;5035288;28;20045;-60
2021/12/01 11:56:32;;;;;;;77.65;9.45;;;8.80;93.40;;;;;;5013560;28;20438;-59
2021/12/01 11:59:05;;;;;;;80.45;9.10;;;8.90;93.40;;;;;;5020620;28;20041;-60
2021/12/01 12:01:30;;;;;;;139.20;13.95;;;8.90;93.30;;;;;;5036549;28;20083;-60
2021/12/01 12:04:02;;;;;;;76.32;8.88;;;8.90;93.20;;;;;;5042673;28;20044;-60
2021/12/01 12:06:28;;;;;;;80.53;9.65;;;9.00;93.20;;;;;;5047941;28;20315;-60
2021/12/01 12:08:53;;;;;;;253.10;26.58;;;9.00;93.30;;;;;;5040437;28;20020;-60
2021/12/01 12:11:37;;;;;;;188.95;18.88;;;9.00;93.60;;;;;;5055269;28;20039;-60
2021/12/01 12:14:18;;;;;;;78.40;10.32;;;9.00;93.30;;;;;;5037137;28;20051;-60
2021/12/01 12:17:04;;;;;;;81.13;10.02;;;9.10;93.30;;;;;;5036918;28;20538;-60
2021/12/01 12:19:53;;;;;;;113.28;12.23;;;9.30;93.30;;;;;;5040515;28;20048;-60
2021/12/01 12:22:33;;;;;;;96.00;10.57;;;9.10;93.40;;;;;;5039331;28;20029;-60
2021/12/01 12:24:59;;;;;;;64.70;8.55;;;9.10;93.50;;;;;;5034703;28;20371;-60
2021/12/01 12:27:37;;;;;;;99.28;10.18;;;9.10;93.30;;;;;;5024238;28;20024;-60
2021/12/01 12:30:28;;;;;;;79.35;10.93;;;9.10;93.10;;;;;;5053861;28;20131;-60
2021/12/01 12:33:13;;;;;;;69.43;9.93;;;9.10;93.20;;;;;;5025626;28;20563;-60
2021/12/01 12:35:43;;;;;;;69.25;9.38;;;9.10;93.20;;;;;;5037666;28;20093;-60
2021/12/01 12:38:09;;;;;;;71.72;10.05;;;9.20;93.20;;;;;;5036115;28;20115;-60
2021/12/01 12:40:34;;;;;;;91.70;9.52;;;9.10;93.10;;;;;;5011996;28;20107;-60
2021/12/01 12:43:24;;;;;;;77.53;8.40;;;9.20;93.10;;;;;;5040479;28;20037;-60
2021/12/01 12:46:19;;;;;;;54.78;7.38;;;9.10;93.00;;;;;;5031328;28;20055;-60
2021/12/01 12:48:50;;;;;;;58.78;8.25;;;9.20;92.90;;;;;;5031389;28;20098;-60
2021/12/01 12:51:29;;;;;;;53.38;7.10;;;9.20;92.80;;;;;;5042003;28;20388;-60
2021/12/01 12:54:08;;;;;;;57.20;6.72;;;9.20;92.80;;;;;;5024474;28;20540;-60
2021/12/01 12:56:34;;;;;;;52.47;8.30;;;9.20;92.80;;;;;;5044120;28;20043;-60